sensor_id;sensor_type;location;lat;lon;timestamp;pressure;altitude;pressure_sealevel;temperature;humidity
60725;BME280;59881;36.722;-4.462;2022-08-25T00:00:42;100056.22;;;18.59;100.00
60725;BME280;59881;36.722;-4.462;2022-08-25T00:03:09;100841.22;;;22.95;100.00
60725;BME280;59881;36.722;-4.462;2022-08-25T00:05:35;100473.81;;;20.93;100.00
60725;BME280;59881;36.722;-4.462;2022-08-25T00:08:02;100257.09;;;19.66;100.00
60725;BME280;59881;36.722;-4.462;2022-08-25T00:10:31;100093.41;;;18.85;100.00
60725;BME280;59881;36.722;-4.462;2022-08-25T00:12:57;100759.44;;;22.98;100.00
60725;BME280;59881;36.722;-4.462;2022-08-25T00:15:23;100306.34;;;19.63;100.00
60725;BME280;59881;36.722;-4.462;2022-08-25T00:17:48;98421.84;;;8.55;99.18
60725;BME280;59881;36.722;-4.462;2022-08-25T00:20:15;100841.44;;;22.62;100.00
60725;BME280;59881;36.722;-4.462;2022-08-25T00:22:40;100161.25;;;19.15;100.00
60725;BME280;59881;36.722;-4.462;2022-08-25T00:25:06;100695.63;;;22.62;100.00
60725;BME280;59881;36.722;-4.462;2022-08-25T00:27:32;100520.31;;;21.31;100.00
60725;BME280;59881;36.722;-4.462;2022-08-25T00:29:58;100111.34;;;19.08;99.76
60725;BME280;59881;36.722;-4.462;2022-08-25T00:32:24;100265.91;;;19.75;99.69
60725;BME280;59881;36.722;-4.462;2022-08-25T00:34:51;100214.69;;;19.55;99.34
60725;BME280;59881;36.722;-4.462;2022-08-25T00:37:18;100149.50;;;19.33;99.32
60725;BME280;59881;36.722;-4.462;2022-08-25T00:39:44;100748.41;;;22.92;99.84
60725;BME280;59881;36.722;-4.462;2022-08-25T00:42:10;100056.72;;;18.79;99.16
60725;BME280;59881;36.722;-4.462;2022-08-25T00:44:38;100162.78;;;19.49;99.01
60725;BME280;59881;36.722;-4.462;2022-08-25T00:47:04;100043.69;;;18.76;98.84
60725;BME280;59881;36.722;-4.462;2022-08-25T00:49:38;100552.63;;;21.92;99.57
60725;BME280;59881;36.722;-4.462;2022-08-25T00:52:15;100835.75;;;22.88;99.49
60725;BME280;59881;36.722;-4.462;2022-08-25T00:54:52;100023.69;;;18.72;99.24
60725;BME280;59881;36.722;-4.462;2022-08-25T00:57:24;100703.66;;;22.85;99.42
60725;BME280;59881;36.722;-4.462;2022-08-25T00:59:50;100721.63;;;22.84;99.37
60725;BME280;59881;36.722;-4.462;2022-08-25T01:02:17;100696.78;;;22.82;99.64
60725;BME280;59881;36.722;-4.462;2022-08-25T01:04:43;100696.59;;;22.84;99.69
60725;BME280;59881;36.722;-4.462;2022-08-25T01:07:10;99961.44;;;18.32;99.09
60725;BME280;59881;36.722;-4.462;2022-08-25T01:09:37;100694.97;;;22.83;99.52
60725;BME280;59881;36.722;-4.462;2022-08-25T01:12:03;100681.53;;;22.83;99.49
60725;BME280;59881;36.722;-4.462;2022-08-25T01:14:31;99987.75;;;18.51;98.61
60725;BME280;59881;36.722;-4.462;2022-08-25T01:16:57;100792.63;;;21.24;99.35
60725;BME280;59881;36.722;-4.462;2022-08-25T01:19:25;100515.16;;;21.61;98.88
60725;BME280;59881;36.722;-4.462;2022-08-25T01:21:52;100001.22;;;18.58;98.79
60725;BME280;59881;36.722;-4.462;2022-08-25T01:26:58;100123.56;;;19.41;98.97
60725;BME280;59881;36.722;-4.462;2022-08-25T01:29:24;100020.22;;;18.63;98.91
60725;BME280;59881;36.722;-4.462;2022-08-25T01:31:58;100160.13;;;19.49;98.80
60725;BME280;59881;36.722;-4.462;2022-08-25T01:34:27;100159.63;;;19.46;99.04
60725;BME280;59881;36.722;-4.462;2022-08-25T01:36:54;99989.03;;;18.64;98.87
60725;BME280;59881;36.722;-4.462;2022-08-25T01:39:20;99979.03;;;18.57;98.82
60725;BME280;59881;36.722;-4.462;2022-08-25T01:44:27;100545.34;;;22.01;99.22
60725;BME280;59881;36.722;-4.462;2022-08-25T01:46:53;100437.53;;;21.36;99.10
60725;BME280;59881;36.722;-4.462;2022-08-25T01:49:19;100535.31;;;21.95;99.07
60725;BME280;59881;36.722;-4.462;2022-08-25T01:51:55;100013.84;;;18.64;98.63
60725;BME280;59881;36.722;-4.462;2022-08-25T01:54:21;100007.69;;;18.72;98.31
60725;BME280;59881;36.722;-4.462;2022-08-25T01:56:47;100658.63;;;22.72;99.20
60725;BME280;59881;36.722;-4.462;2022-08-25T01:59:17;100635.88;;;22.45;99.45
60725;BME280;59881;36.722;-4.462;2022-08-25T02:01:45;100008.56;;;18.56;99.07
60725;BME280;59881;36.722;-4.462;2022-08-25T02:04:10;100473.09;;;21.61;99.37
60725;BME280;59881;36.722;-4.462;2022-08-25T02:06:37;100781.13;;;22.73;99.18
60725;BME280;59881;36.722;-4.462;2022-08-25T02:09:07;99959.09;;;18.37;98.52
60725;BME280;59881;36.722;-4.462;2022-08-25T02:11:36;100538.19;;;21.93;99.16
60725;BME280;59881;36.722;-4.462;2022-08-25T02:14:01;100648.78;;;22.64;99.25
60725;BME280;59881;36.722;-4.462;2022-08-25T02:16:32;99914.50;;;18.06;98.32
60725;BME280;59881;36.722;-4.462;2022-08-25T02:18:59;100801.53;;;22.59;98.91
60725;BME280;59881;36.722;-4.462;2022-08-25T02:21:25;99910.34;;;17.95;98.50
60725;BME280;59881;36.722;-4.462;2022-08-25T02:23:51;100057.34;;;18.89;98.60
60725;BME280;59881;36.722;-4.462;2022-08-25T02:26:17;100519.00;;;21.58;99.08
60725;BME280;59881;36.722;-4.462;2022-08-25T02:28:48;99980.63;;;18.35;98.65
60725;BME280;59881;36.722;-4.462;2022-08-25T02:31:15;100278.22;;;19.92;98.98
60725;BME280;59881;36.722;-4.462;2022-08-25T02:33:40;100654.97;;;22.50;99.35
60725;BME280;59881;36.722;-4.462;2022-08-25T02:36:06;99971.94;;;18.33;99.13
60725;BME280;59881;36.722;-4.462;2022-08-25T02:38:32;100612.69;;;22.29;99.76
60725;BME280;59881;36.722;-4.462;2022-08-25T02:40:59;99896.72;;;17.82;99.02
60725;BME280;59881;36.722;-4.462;2022-08-25T02:43:26;100405.31;;;20.98;99.53
60725;BME280;59881;36.722;-4.462;2022-08-25T02:45:53;99981.44;;;18.36;99.18
60725;BME280;59881;36.722;-4.462;2022-08-25T02:48:19;100640.88;;;22.48;100.00
60725;BME280;59881;36.722;-4.462;2022-08-25T02:50:50;99969.44;;;18.32;99.60
60725;BME280;59881;36.722;-4.462;2022-08-25T02:53:18;100635.69;;;22.46;100.00
60725;BME280;59881;36.722;-4.462;2022-08-25T02:55:43;100675.38;;;22.36;100.00
60725;BME280;59881;36.722;-4.462;2022-08-25T02:58:09;100006.03;;;18.63;99.68
60725;BME280;59881;36.722;-4.462;2022-08-25T03:00:35;100586.25;;;22.18;99.86
60725;BME280;59881;36.722;-4.462;2022-08-25T03:03:01;100881.81;;;22.46;99.92
60725;BME280;59881;36.722;-4.462;2022-08-25T03:05:27;99939.66;;;18.12;99.09
60725;BME280;59881;36.722;-4.462;2022-08-25T03:07:52;100267.78;;;20.14;99.38
60725;BME280;59881;36.722;-4.462;2022-08-25T03:10:18;99969.13;;;18.27;99.14
60725;BME280;59881;36.722;-4.462;2022-08-25T03:12:44;100510.13;;;21.58;99.52
60725;BME280;59881;36.722;-4.462;2022-08-25T03:15:12;100638.16;;;22.33;99.43
60725;BME280;59881;36.722;-4.462;2022-08-25T03:17:41;100023.06;;;18.53;99.01
60725;BME280;59881;36.722;-4.462;2022-08-25T03:20:07;99962.16;;;18.09;99.13
60725;BME280;59881;36.722;-4.462;2022-08-25T03:22:33;100066.53;;;18.70;98.76
60725;BME280;59881;36.722;-4.462;2022-08-25T03:25:00;100674.78;;;22.26;99.49
60725;BME280;59881;36.722;-4.462;2022-08-25T03:27:44;100668.09;;;22.22;100.00
60725;BME280;59881;36.722;-4.462;2022-08-25T03:30:10;99955.34;;;17.98;99.00
60725;BME280;59881;36.722;-4.462;2022-08-25T03:32:36;100215.84;;;19.60;99.00
60725;BME280;59881;36.722;-4.462;2022-08-25T03:35:03;100528.28;;;21.47;99.19
60725;BME280;59881;36.722;-4.462;2022-08-25T03:37:29;100150.88;;;19.20;98.94
60725;BME280;59881;36.722;-4.462;2022-08-25T03:39:55;100001.78;;;18.29;98.62
60725;BME280;59881;36.722;-4.462;2022-08-25T03:42:20;99984.47;;;18.16;98.36
60725;BME280;59881;36.722;-4.462;2022-08-25T03:44:46;100007.75;;;16.20;97.93
60725;BME280;59881;36.722;-4.462;2022-08-25T03:47:12;100600.81;;;22.00;98.90
60725;BME280;59881;36.722;-4.462;2022-08-25T03:49:37;100208.72;;;19.44;98.28
60725;BME280;59881;36.722;-4.462;2022-08-25T03:52:03;100505.91;;;21.32;98.11
60725;BME280;59881;36.722;-4.462;2022-08-25T03:54:28;100478.38;;;21.15;98.01
60725;BME280;59881;36.722;-4.462;2022-08-25T03:56:54;100081.72;;;18.61;97.77
60725;BME280;59881;36.722;-4.462;2022-08-25T03:59:20;100611.84;;;22.05;97.95
60725;BME280;59881;36.722;-4.462;2022-08-25T04:01:46;100677.00;;;21.52;98.07
60725;BME280;59881;36.722;-4.462;2022-08-25T04:04:13;100634.69;;;22.01;97.65
60725;BME280;59881;36.722;-4.462;2022-08-25T04:06:40;100568.91;;;21.59;97.78
60725;BME280;59881;36.722;-4.462;2022-08-25T04:09:08;99919.53;;;17.60;97.28
60725;BME280;59881;36.722;-4.462;2022-08-25T04:11:34;100466.44;;;20.95;97.63
60725;BME280;59881;36.722;-4.462;2022-08-25T04:14:00;100670.75;;;21.99;97.96
60725;BME280;59881;36.722;-4.462;2022-08-25T04:16:31;100471.13;;;20.93;97.46
60725;BME280;59881;36.722;-4.462;2022-08-25T04:19:02;99930.34;;;17.58;97.25
60725;BME280;59881;36.722;-4.462;2022-08-25T04:21:28;99903.88;;;17.41;97.33
60725;BME280;59881;36.722;-4.462;2022-08-25T04:23:55;100106.44;;;18.47;97.35
60725;BME280;59881;36.722;-4.462;2022-08-25T04:26:29;100639.31;;;21.84;98.03
60725;BME280;59881;36.722;-4.462;2022-08-25T04:28:57;100651.22;;;21.82;98.07
60725;BME280;59881;36.722;-4.462;2022-08-25T04:31:24;100073.59;;;18.30;97.74
60725;BME280;59881;36.722;-4.462;2022-08-25T04:33:50;100235.13;;;19.23;97.66
60725;BME280;59881;36.722;-4.462;2022-08-25T04:36:17;100632.50;;;21.74;98.07
60725;BME280;59881;36.722;-4.462;2022-08-25T04:38:44;100581.91;;;20.92;97.61
60725;BME280;59881;36.722;-4.462;2022-08-25T04:41:12;100405.50;;;20.18;97.69
60725;BME280;59881;36.722;-4.462;2022-08-25T04:43:40;100182.97;;;18.88;97.23
60725;BME280;59881;36.722;-4.462;2022-08-25T04:46:18;99864.88;;;16.90;97.04
60725;BME280;59881;36.722;-4.462;2022-08-25T04:48:44;99898.66;;;17.06;97.13
60725;BME280;59881;36.722;-4.462;2022-08-25T04:51:12;100161.44;;;18.65;97.36
60725;BME280;59881;36.722;-4.462;2022-08-25T04:53:39;99933.97;;;17.25;97.19
60725;BME280;59881;36.722;-4.462;2022-08-25T04:56:07;100616.56;;;21.41;97.73
60725;BME280;59881;36.722;-4.462;2022-08-25T04:58:34;99942.97;;;17.32;97.42
60725;BME280;59881;36.722;-4.462;2022-08-25T05:01:04;99935.44;;;17.19;96.87
60725;BME280;59881;36.722;-4.462;2022-08-25T05:03:30;100625.28;;;21.43;97.65
60725;BME280;59881;36.722;-4.462;2022-08-25T05:05:56;100608.38;;;20.86;97.30
60725;BME280;59881;36.722;-4.462;2022-08-25T05:08:22;100632.78;;;21.47;96.30
60725;BME280;59881;36.722;-4.462;2022-08-25T05:10:48;100612.78;;;20.22;95.15
60725;BME280;59881;36.722;-4.462;2022-08-25T05:13:14;100132.91;;;18.24;93.97
60725;BME280;59881;36.722;-4.462;2022-08-25T05:15:40;99944.41;;;17.10;92.98
60725;BME280;59881;36.722;-4.462;2022-08-25T05:18:16;100607.13;;;21.14;92.34
60725;BME280;59881;36.722;-4.462;2022-08-25T05:20:42;99970.72;;;17.21;90.93
60725;BME280;59881;36.722;-4.462;2022-08-25T05:23:07;99902.88;;;16.74;90.13
60725;BME280;59881;36.722;-4.462;2022-08-25T05:25:33;100014.66;;;17.25;89.24
60725;BME280;59881;36.722;-4.462;2022-08-25T05:27:59;99917.56;;;16.87;88.58
60725;BME280;59881;36.722;-4.462;2022-08-25T05:30:25;100814.88;;;21.41;88.50
60725;BME280;59881;36.722;-4.462;2022-08-25T05:32:50;100659.44;;;21.41;88.48
60725;BME280;59881;36.722;-4.462;2022-08-25T05:35:16;100055.47;;;17.50;87.76
60725;BME280;59881;36.722;-4.462;2022-08-25T05:37:44;99944.91;;;17.05;87.85
60725;BME280;59881;36.722;-4.462;2022-08-25T05:40:09;100654.09;;;21.41;88.18
60725;BME280;59881;36.722;-4.462;2022-08-25T05:42:35;100631.50;;;21.27;88.00
60725;BME280;59881;36.722;-4.462;2022-08-25T05:45:03;99964.56;;;17.21;87.47
60725;BME280;59881;36.722;-4.462;2022-08-25T05:47:28;100656.09;;;21.47;87.70
60725;BME280;59881;36.722;-4.462;2022-08-25T05:49:54;99946.41;;;17.08;87.23
60725;BME280;59881;36.722;-4.462;2022-08-25T05:52:20;100179.31;;;17.89;87.17
60725;BME280;59881;36.722;-4.462;2022-08-25T05:54:46;100661.78;;;21.52;87.31
60725;BME280;59881;36.722;-4.462;2022-08-25T05:57:12;100730.47;;;21.45;87.32
60725;BME280;59881;36.722;-4.462;2022-08-25T05:59:38;100374.38;;;20.25;87.54
60725;BME280;59881;36.722;-4.462;2022-08-25T06:02:03;100226.81;;;19.82;85.59
60725;BME280;59881;36.722;-4.462;2022-08-25T06:04:52;100112.66;;;19.59;81.78
60725;BME280;59881;36.722;-4.462;2022-08-25T06:07:18;100650.28;;;23.71;78.64
60725;BME280;59881;36.722;-4.462;2022-08-25T06:09:43;100701.16;;;24.60;74.29
60725;BME280;59881;36.722;-4.462;2022-08-25T06:12:11;99978.06;;;21.11;70.05
60725;BME280;59881;36.722;-4.462;2022-08-25T06:14:36;100089.97;;;22.39;67.04
60725;BME280;59881;36.722;-4.462;2022-08-25T06:17:02;100030.22;;;22.59;64.71
60725;BME280;59881;36.722;-4.462;2022-08-25T06:19:28;100166.09;;;23.86;62.17
60725;BME280;59881;36.722;-4.462;2022-08-25T06:21:56;100694.84;;;26.80;60.78
60725;BME280;59881;36.722;-4.462;2022-08-25T06:24:24;100655.06;;;27.79;58.81
60725;BME280;59881;36.722;-4.462;2022-08-25T06:26:49;100189.63;;;25.38;57.18
60725;BME280;59881;36.722;-4.462;2022-08-25T06:29:16;100750.31;;;28.78;55.03
60725;BME280;59881;36.722;-4.462;2022-08-25T06:31:41;99579.28;;;22.65;53.75
60725;BME280;59881;36.722;-4.462;2022-08-25T06:34:07;100620.63;;;29.67;51.81
60725;BME280;59881;36.722;-4.462;2022-08-25T06:36:33;100634.41;;;29.66;50.74
60725;BME280;59881;36.722;-4.462;2022-08-25T06:38:59;100765.28;;;29.75;50.98
60725;BME280;59881;36.722;-4.462;2022-08-25T06:41:25;100076.38;;;26.15;50.27
60725;BME280;59881;36.722;-4.462;2022-08-25T06:43:51;100541.06;;;29.25;50.30
60725;BME280;59881;36.722;-4.462;2022-08-25T06:46:19;100748.47;;;30.15;49.60
60725;BME280;59881;36.722;-4.462;2022-08-25T06:48:46;100657.75;;;30.69;48.68
60725;BME280;59881;36.722;-4.462;2022-08-25T06:51:14;100346.88;;;29.17;47.83
60725;BME280;59881;36.722;-4.462;2022-08-25T06:53:40;100037.47;;;27.59;46.87
60725;BME280;59881;36.722;-4.462;2022-08-25T06:56:05;100421.03;;;30.47;45.96
60725;BME280;59881;36.722;-4.462;2022-08-25T06:58:31;100675.19;;;32.13;44.51
60725;BME280;59881;36.722;-4.462;2022-08-25T07:01:19;100674.66;;;32.62;43.97
60725;BME280;59881;36.722;-4.462;2022-08-25T07:03:49;100578.38;;;32.45;42.55
60725;BME280;59881;36.722;-4.462;2022-08-25T07:06:16;100133.63;;;30.38;41.47
60725;BME280;59881;36.722;-4.462;2022-08-25T07:08:43;100646.16;;;34.07;39.85
60725;BME280;59881;36.722;-4.462;2022-08-25T07:11:09;100700.59;;;34.63;38.59
60725;BME280;59881;36.722;-4.462;2022-08-25T07:13:36;100137.97;;;31.50;38.06
60725;BME280;59881;36.722;-4.462;2022-08-25T07:16:02;100742.34;;;35.28;37.42
60725;BME280;59881;36.722;-4.462;2022-08-25T07:18:28;100682.00;;;35.71;36.39
60725;BME280;59881;36.722;-4.462;2022-08-25T07:20:54;100270.78;;;33.71;35.23
60725;BME280;59881;36.722;-4.462;2022-08-25T07:23:21;100191.94;;;33.90;34.13
60725;BME280;59881;36.722;-4.462;2022-08-25T07:25:47;100704.19;;;37.38;32.78
60725;BME280;59881;36.722;-4.462;2022-08-25T07:28:14;100288.63;;;34.93;32.60
60725;BME280;59881;36.722;-4.462;2022-08-25T07:30:40;100132.16;;;34.34;32.17
60725;BME280;59881;36.722;-4.462;2022-08-25T07:33:06;100689.34;;;38.34;31.70
60725;BME280;59881;36.722;-4.462;2022-08-25T07:35:32;100169.53;;;35.86;31.73
60725;BME280;59881;36.722;-4.462;2022-08-25T07:37:58;100390.41;;;38.00;30.79
60725;BME280;59881;36.722;-4.462;2022-08-25T07:40:27;100773.69;;;40.60;30.33
60725;BME280;59881;36.722;-4.462;2022-08-25T07:42:55;100743.38;;;40.74;28.36
60725;BME280;59881;36.722;-4.462;2022-08-25T07:45:24;100213.31;;;37.82;28.99
60725;BME280;59881;36.722;-4.462;2022-08-25T07:47:59;100708.13;;;41.40;29.71
60725;BME280;59881;36.722;-4.462;2022-08-25T07:50:25;100206.00;;;38.81;29.16
60725;BME280;59881;36.722;-4.462;2022-08-25T07:52:51;100763.97;;;42.06;28.45
60725;BME280;59881;36.722;-4.462;2022-08-25T07:55:17;100692.50;;;42.53;28.61
60725;BME280;59881;36.722;-4.462;2022-08-25T07:57:43;100226.16;;;40.06;28.33
60725;BME280;59881;36.722;-4.462;2022-08-25T08:00:09;100437.94;;;40.37;27.07
60725;BME280;59881;36.722;-4.462;2022-08-25T08:02:39;100642.59;;;42.76;25.77
60725;BME280;59881;36.722;-4.462;2022-08-25T08:05:06;100783.69;;;43.35;25.54
60725;BME280;59881;36.722;-4.462;2022-08-25T08:07:32;100495.97;;;42.31;26.01
60725;BME280;59881;36.722;-4.462;2022-08-25T08:09:58;100237.19;;;40.87;25.16
60725;BME280;59881;36.722;-4.462;2022-08-25T08:12:24;100220.31;;;40.98;23.96
60725;BME280;59881;36.722;-4.462;2022-08-25T08:14:51;100676.91;;;44.25;24.80
60725;BME280;59881;36.722;-4.462;2022-08-25T08:17:18;100680.03;;;44.70;24.99
60725;BME280;59881;36.722;-4.462;2022-08-25T08:19:43;100656.28;;;44.81;24.50
60725;BME280;59881;36.722;-4.462;2022-08-25T08:22:09;100716.84;;;45.44;24.29
60725;BME280;59881;36.722;-4.462;2022-08-25T08:24:41;100633.19;;;45.28;23.54
60725;BME280;59881;36.722;-4.462;2022-08-25T08:27:09;100262.69;;;43.21;23.66
60725;BME280;59881;36.722;-4.462;2022-08-25T08:29:36;100407.66;;;44.46;22.78
60725;BME280;59881;36.722;-4.462;2022-08-25T08:32:04;100278.28;;;44.03;22.86
60725;BME280;59881;36.722;-4.462;2022-08-25T08:34:30;100731.03;;;47.18;21.37
60725;BME280;59881;36.722;-4.462;2022-08-25T08:36:57;100599.06;;;46.64;21.20
60725;BME280;59881;36.722;-4.462;2022-08-25T08:39:25;100713.53;;;47.70;20.43
60725;BME280;59881;36.722;-4.462;2022-08-25T08:55:38;100679.88;;;48.07;17.99
60725;BME280;59881;36.722;-4.462;2022-08-25T08:58:09;100199.88;;;45.30;20.43
60725;BME280;59881;36.722;-4.462;2022-08-25T09:00:41;99903.28;;;43.79;19.43
60725;BME280;59881;36.722;-4.462;2022-08-25T09:03:14;100687.41;;;48.63;20.12
60725;BME280;59881;36.722;-4.462;2022-08-25T09:05:50;100241.22;;;46.50;19.50
60725;BME280;59881;36.722;-4.462;2022-08-25T09:08:17;100660.25;;;47.35;19.37
60725;BME280;59881;36.722;-4.462;2022-08-25T09:10:58;100639.84;;;45.06;21.66
60725;BME280;59881;36.722;-4.462;2022-08-25T09:29:41;100718.06;;;43.22;25.37
60725;BME280;59881;36.722;-4.462;2022-08-25T09:32:09;100164.03;;;39.86;25.28
60725;BME280;59881;36.722;-4.462;2022-08-25T09:34:35;100716.06;;;43.53;24.74
60725;BME280;59881;36.722;-4.462;2022-08-25T09:37:01;100244.28;;;40.57;24.79
60725;BME280;59881;36.722;-4.462;2022-08-25T09:39:27;100250.84;;;40.92;24.14
60725;BME280;59881;36.722;-4.462;2022-08-25T09:41:55;100768.03;;;44.05;24.28
60725;BME280;59881;36.722;-4.462;2022-08-25T09:47:03;100490.41;;;42.71;23.88
60725;BME280;59881;36.722;-4.462;2022-08-25T09:49:45;100765.88;;;44.54;22.60
60725;BME280;59881;36.722;-4.462;2022-08-25T09:52:30;100296.56;;;41.61;23.23
60725;BME280;59881;36.722;-4.462;2022-08-25T09:55:22;100767.59;;;44.94;22.97
60725;BME280;59881;36.722;-4.462;2022-08-25T09:57:51;100869.13;;;44.91;22.69
60725;BME280;59881;36.722;-4.462;2022-08-25T10:00:31;100817.88;;;45.10;22.51
60725;BME280;59881;36.722;-4.462;2022-08-25T10:03:19;100829.97;;;45.14;22.41
60725;BME280;59881;36.722;-4.462;2022-08-25T10:09:03;100330.03;;;43.30;21.56
60725;BME280;59881;36.722;-4.462;2022-08-25T10:11:38;100840.81;;;45.83;21.75
60725;BME280;59881;36.722;-4.462;2022-08-25T10:16:50;100644.59;;;45.35;21.82
60725;BME280;59881;36.722;-4.462;2022-08-25T10:22:10;100758.94;;;46.27;20.99
60725;BME280;59881;36.722;-4.462;2022-08-25T10:24:38;100406.56;;;44.08;20.82
60725;BME280;59881;36.722;-4.462;2022-08-25T10:32:59;100485.59;;;45.33;20.68
60725;BME280;59881;36.722;-4.462;2022-08-25T10:35:34;100147.06;;;43.30;20.21
60725;BME280;59881;36.722;-4.462;2022-08-25T10:43:35;100502.41;;;43.97;21.99
60725;BME280;59881;36.722;-4.462;2022-08-25T10:46:23;100268.25;;;41.24;22.95
60725;BME280;59881;36.722;-4.462;2022-08-25T10:57:37;100781.19;;;31.86;41.36
60725;BME280;59881;36.722;-4.462;2022-08-25T11:00:10;100769.88;;;31.07;43.45
60725;BME280;59881;36.722;-4.462;2022-08-25T11:05:29;100060.59;;;25.42;46.47
60725;BME280;59881;36.722;-4.462;2022-08-25T11:11:09;100359.63;;;27.00;48.04
60725;BME280;59881;36.722;-4.462;2022-08-25T11:13:44;100915.16;;;29.58;48.11
60725;BME280;59881;36.722;-4.462;2022-08-25T11:16:14;100729.88;;;28.19;47.71
60725;BME280;59881;36.722;-4.462;2022-08-25T11:21:30;100899.41;;;28.85;49.27
60725;BME280;59881;36.722;-4.462;2022-08-25T11:26:58;100471.78;;;26.84;49.36
60725;BME280;59881;36.722;-4.462;2022-08-25T11:29:28;100231.31;;;25.09;49.72
60725;BME280;59881;36.722;-4.462;2022-08-25T11:31:57;100481.44;;;26.47;49.92
60725;BME280;59881;36.722;-4.462;2022-08-25T11:34:24;100642.34;;;27.41;50.38
60725;BME280;59881;36.722;-4.462;2022-08-25T11:36:54;100790.28;;;28.19;50.37
60725;BME280;59881;36.722;-4.462;2022-08-25T11:42:13;100772.66;;;28.74;49.69
60725;BME280;59881;36.722;-4.462;2022-08-25T11:45:25;100040.31;;;24.28;48.61
60725;BME280;59881;36.722;-4.462;2022-08-25T11:50:35;100898.09;;;28.94;48.71
60725;BME280;59881;36.722;-4.462;2022-08-25T12:00:49;100761.44;;;28.70;49.71
60725;BME280;59881;36.722;-4.462;2022-08-25T12:09:19;100772.53;;;28.23;51.64
60725;BME280;59881;36.722;-4.462;2022-08-25T12:35:58;100048.16;;;23.83;51.68
60725;BME280;59881;36.722;-4.462;2022-08-25T12:38:43;100603.44;;;27.36;51.01
60725;BME280;59881;36.722;-4.462;2022-08-25T12:41:12;100105.09;;;24.20;51.31
60725;BME280;59881;36.722;-4.462;2022-08-25T12:43:43;100664.91;;;27.67;52.26
60725;BME280;59881;36.722;-4.462;2022-08-25T12:51:59;100729.03;;;28.12;52.12
60725;BME280;59881;36.722;-4.462;2022-08-25T12:59:52;100703.78;;;28.24;52.46
60725;BME280;59881;36.722;-4.462;2022-08-25T13:02:50;100714.84;;;28.23;53.04
60725;BME280;59881;36.722;-4.462;2022-08-25T13:10:54;100033.47;;;23.85;53.00
60725;BME280;59881;36.722;-4.462;2022-08-25T13:16:24;100742.16;;;27.63;54.22
60725;BME280;59881;36.722;-4.462;2022-08-25T13:18:52;100144.00;;;24.10;54.75
60725;BME280;59881;36.722;-4.462;2022-08-25T13:21:27;100658.19;;;27.18;54.75
60725;BME280;59881;36.722;-4.462;2022-08-25T13:23:55;99944.25;;;22.93;54.74
60725;BME280;59881;36.722;-4.462;2022-08-25T13:26:31;100799.81;;;27.63;54.82
60725;BME280;59881;36.722;-4.462;2022-08-25T13:29:22;100613.91;;;27.19;54.43
60725;BME280;59881;36.722;-4.462;2022-08-25T13:31:51;100804.84;;;27.53;53.92
60725;BME280;59881;36.722;-4.462;2022-08-25T13:34:20;100662.78;;;27.76;53.55
60725;BME280;59881;36.722;-4.462;2022-08-25T13:36:48;100541.38;;;26.96;53.48
60725;BME280;59881;36.722;-4.462;2022-08-25T13:39:33;100681.31;;;27.85;53.30
60725;BME280;59881;36.722;-4.462;2022-08-25T13:42:00;100541.53;;;27.08;52.83
60725;BME280;59881;36.722;-4.462;2022-08-25T13:44:29;99987.69;;;23.65;52.60
60725;BME280;59881;36.722;-4.462;2022-08-25T13:47:16;100664.19;;;27.92;52.39
60725;BME280;59881;36.722;-4.462;2022-08-25T13:53:35;100640.19;;;28.02;51.84
60725;BME280;59881;36.722;-4.462;2022-08-25T13:58:14;100604.47;;;27.80;52.27
60725;BME280;59881;36.722;-4.462;2022-08-25T14:00:46;100605.50;;;27.85;52.21
60725;BME280;59881;36.722;-4.462;2022-08-25T14:08:36;100606.59;;;28.10;51.31
60725;BME280;59881;36.722;-4.462;2022-08-25T14:11:14;100605.03;;;27.57;51.33
60725;BME280;59881;36.722;-4.462;2022-08-25T14:14:02;100621.63;;;28.05;51.58
60725;BME280;59881;36.722;-4.462;2022-08-25T14:16:47;100515.34;;;27.53;51.43
60725;BME280;59881;36.722;-4.462;2022-08-25T14:19:20;99925.69;;;23.93;51.31
60725;BME280;59881;36.722;-4.462;2022-08-25T14:21:48;100712.81;;;28.12;51.44
60725;BME280;59881;36.722;-4.462;2022-08-25T14:24:15;100638.19;;;28.16;51.51
60725;BME280;59881;36.722;-4.462;2022-08-25T14:26:43;100508.66;;;27.17;52.10
60725;BME280;59881;36.722;-4.462;2022-08-25T14:29:09;100498.50;;;27.13;52.72
60725;BME280;59881;36.722;-4.462;2022-08-25T14:31:36;100534.59;;;27.32;52.69
60725;BME280;59881;36.722;-4.462;2022-08-25T14:34:25;100623.09;;;28.01;52.53
60725;BME280;59881;36.722;-4.462;2022-08-25T14:36:54;100686.78;;;28.11;51.63
60725;BME280;59881;36.722;-4.462;2022-08-25T14:39:20;100170.94;;;25.37;51.79
60725;BME280;59881;36.722;-4.462;2022-08-25T14:41:46;99834.44;;;23.25;51.90
60725;BME280;59881;36.722;-4.462;2022-08-25T14:44:12;100364.44;;;26.60;51.59
60725;BME280;59881;36.722;-4.462;2022-08-25T14:46:53;99913.22;;;23.72;51.84
60725;BME280;59881;36.722;-4.462;2022-08-25T14:49:27;100478.53;;;27.07;52.44
60725;BME280;59881;36.722;-4.462;2022-08-25T14:52:00;100524.72;;;27.51;52.72
60725;BME280;59881;36.722;-4.462;2022-08-25T14:54:29;100078.19;;;24.79;52.62
60725;BME280;59881;36.722;-4.462;2022-08-25T14:56:54;99906.63;;;23.75;52.66
60725;BME280;59881;36.722;-4.462;2022-08-25T14:59:21;99712.25;;;22.55;52.60
60725;BME280;59881;36.722;-4.462;2022-08-25T15:01:47;100655.47;;;27.76;52.57
60725;BME280;59881;36.722;-4.462;2022-08-25T15:04:16;99898.34;;;23.57;53.01
60725;BME280;59881;36.722;-4.462;2022-08-25T15:06:44;100558.09;;;27.70;52.85
60725;BME280;59881;36.722;-4.462;2022-08-25T15:09:12;100417.69;;;26.91;53.13
60725;BME280;59881;36.722;-4.462;2022-08-25T15:11:46;100587.34;;;27.93;53.21
60725;BME280;59881;36.722;-4.462;2022-08-25T15:14:14;100546.28;;;27.64;53.48
60725;BME280;59881;36.722;-4.462;2022-08-25T15:16:43;100606.97;;;27.36;53.23
60725;BME280;59881;36.722;-4.462;2022-08-25T15:19:12;100427.28;;;26.87;53.08
60725;BME280;59881;36.722;-4.462;2022-08-25T15:21:39;99836.69;;;23.15;53.39